Latest Weather Observations for Bairnsdale

IDV60801

Issued at 10:32 am EST Sunday 24 July 2016 (issued every 30 minutes, with the page automatically refreshed every 10 minutes)

About weather observations | Map of weather stations | Latest weather observations for VIC | Other Formats
Station Details ID: 085279 Name: BAIRNSDALE AIRPORT Lat: -37.88 Lon: 147.57 Height: 49.4 m
Data from the previous 72 hours. | See also: Recent months at Bairnsdale
Date/Time
EST
Temp
°C
App
Temp
°C
Dew
Point
°C
Rel
Hum
%
Delta-T
°C
Wind Press
QNH
hPa
Press
MSL
hPa
Rain since
9am
mm
Dir  Spd
km/h
Gust
km/h
Spd
kts
Gust
kts
24/10:30am 9.9 6.6 2.7 61 3.1 NNE 9 13 5 7 1011.2 1011.2 0.0
24/10:00am 8.4 4.7 2.6 67 2.4 NNE 11 15 6 8 1011.3 1011.3 0.0
24/09:30am 8.2 4.6 2.7 68 2.3 WNW 11 15 6 8 1011.5 1011.5 0.0
24/09:00am 5.8 1.6 1.9 76 1.6 WNW 13 19 7 10 1011.5 1011.5 1.0
24/08:30am 3.8 0.9 1.7 86 0.8 N 6 7 3 4 1011.6 1011.6 1.0
24/08:00am 1.8 -1.8 0.6 92 0.4 N 9 11 5 6 1011.5 1011.5 0.8
24/07:30am 0.3 -3.5 -0.5 94 0.3 NNW 9 11 5 6 1011.0 1011.0 0.8
24/07:00am 0.7 -3.1 -0.4 92 0.4 N 9 11 5 6 1011.1 1011.1 0.8
24/06:30am 1.7 -2.0 -0.2 87 0.7 NW 9 13 5 7 1011.1 1011.1 0.8
24/06:00am 1.4 -2.7 -0.2 89 0.6 NW 11 13 6 7 1011.3 1011.3 0.8
24/05:30am 1.5 -2.5 0.3 92 0.4 NW 11 13 6 7 1011.4 1011.4 0.8
24/05:00am 1.1 -2.9 0.4 95 0.3 WNW 11 11 6 6 1011.4 1011.4 0.8
24/04:30am 1.0 -2.1 0.1 94 0.3 WNW 6 9 3 5 1011.5 1011.5 0.8
24/04:00am 1.9 -2.0 0.9 93 0.4 W 11 15 6 8 1011.2 1011.2 0.8
24/03:30am 1.8 -1.2 0.9 94 0.3 W 6 7 3 4 1011.3 1011.3 0.8
24/03:00am 2.2 -1.7 1.2 93 0.4 WSW 11 13 6 7 1011.5 1011.5 0.8
24/02:30am 3.6 0.9 2.4 92 0.5 WSW 6 7 3 4 1011.6 1011.6 0.8
24/02:00am 3.8 0.5 2.3 90 0.6 SW 9 11 5 6 1011.6 1011.6 0.8
24/01:30am 5.0 1.8 3.2 88 0.7 WSW 9 11 5 6 1011.7 1011.7 0.8
24/01:00am 5.2 2.1 3.5 89 0.7 WSW 9 11 5 6 1011.7 1011.7 0.8
24/12:30am 5.0 1.4 3.2 88 0.7 W 11 15 6 8 1011.7 1011.7 0.8
24/12:00am 5.3 1.3 3.0 85 0.9 WSW 13 15 7 8 1011.8 1011.8 0.8
 
Date/Time
EST
Temp
°C
App
Temp
°C
Dew
Point
°C
Rel
Hum
%
Delta-T
°C
Wind Press
QNH
hPa
Press
MSL
hPa
Rain since
9am
mm
Dir  Spd
km/h
Gust
km/h
Spd
kts
Gust
kts
23/11:30pm 6.1 1.8 3.4 83 1.1 W 15 19 8 10 1011.9 1012.0 0.8
23/11:00pm 6.0 2.1 3.5 84 1.1 WSW 13 19 7 10 1011.8 1011.8 0.8
23/10:30pm 6.1 0.9 3.6 84 1.1 W 20 28 11 15 1011.8 1011.8 0.8
23/10:00pm 6.3 1.7 3.5 82 1.2 W 17 22 9 12 1011.4 1011.4 0.6
23/09:30pm 6.9 1.6 2.8 75 1.7 SW 20 28 11 15 1011.2 1011.2 0.6
23/09:00pm 7.2 1.4 2.3 71 2.0 W 22 32 12 17 1010.6 1010.6 0.6
23/08:30pm 7.8 0.0 1.9 66 2.4 W 32 50 17 27 1010.0 1010.0 0.6
23/08:18pm 7.9 0.1 1.5 64 2.6 W 32 56 17 30 1009.8 1009.8 0.6
23/08:00pm 8.0 2.1 1.6 64 2.6 WSW 22 32 12 17 1009.7 1009.7 0.6
23/07:30pm 8.0 2.1 1.6 64 2.6 W 22 32 12 17 1009.2 1009.2 0.6
23/07:00pm 7.9 0.5 1.7 65 2.5 WSW 30 43 16 23 1009.0 1009.0 0.6
23/06:30pm 8.2 1.0 0.9 60 2.9 W 28 48 15 26 1008.0 1008.1 0.6
23/06:25pm 8.5 1.3 0.7 58 3.1 W 28 48 15 26 1007.9 1008.0 0.6
23/06:00pm 8.6 1.3 0.3 56 3.3 WSW 28 41 15 22 1007.4 1007.5 0.6
23/05:30pm 7.7 2.0 0.7 61 2.8 W 20 26 11 14 1006.4 1006.5 0.6
23/05:00pm 8.5 1.7 1.0 59 3.1 WSW 26 41 14 22 1006.2 1006.3 0.6
23/04:30pm 8.9 1.8 1.1 58 3.2 W 28 35 15 19 1005.8 1005.9 0.6
23/04:08pm 8.8 1.2 0.8 57 3.2 W 30 48 16 26 1005.2 1005.3 0.6
23/04:00pm 8.7 1.9 1.1 59 3.1 W 26 39 14 21 1005.1 1005.2 0.6
23/03:30pm 9.0 1.3 2.1 62 2.9 W 32 48 17 26 1004.9 1005.0 0.6
23/03:24pm 8.9 1.9 2.0 62 2.9 W 28 48 15 26 1005.0 1005.1 0.6
23/03:00pm 7.8 0.5 2.5 69 2.2 W 30 43 16 23 1004.6 1004.7 0.6
23/02:48pm 7.7 0.1 2.6 70 2.1 W 32 50 17 27 1004.4 1004.5 0.6
23/02:30pm 8.4 1.9 2.8 68 2.4 WSW 26 37 14 20 1004.3 1004.4 0.6
23/02:00pm 9.1 2.2 2.4 63 2.8 W 28 37 15 20 1003.7 1003.8 0.6
23/01:30pm 8.5 2.5 3.1 69 2.3 W 24 39 13 21 1003.6 1003.7 0.6
23/01:00pm 6.6 -2.8 2.5 75 1.7 W 41 69 22 37 1004.1 1004.2 0.6
23/12:53pm 7.0 -0.9 2.1 71 2.0 W 33 52 18 28 1004.0 1004.1 0.6
23/12:40pm 7.4 -0.1 3.6 77 1.6 W 32 43 17 23 1003.7 1003.8 0.6
23/12:30pm 6.7 -2.3 4.4 85 1.0 WNW 41 61 22 33 1003.6 1003.7 0.6
23/12:19pm 5.5 -6.4 2.2 79 1.3 W 54 72 29 39 1003.4 1003.5 0.4
23/12:00pm 6.9 -3.9 2.0 71 2.0 W 48 67 26 36 1003.2 1003.3 0.2
23/11:38am 8.2 0.4 2.7 68 2.3 W 33 52 18 28 1002.9 1003.0 0.2
23/11:30am 7.9 0.3 2.8 70 2.1 W 32 44 17 24 1002.8 1002.9 0.2
23/11:00am 6.9 -1.8 2.2 72 1.9 W 37 72 20 39 1002.9 1003.0 0.2
23/10:32am 7.5 -2.1 0.9 63 2.6 W 41 59 22 32 1002.1 1002.2 0.2
23/10:30am 7.5 -1.6 1.8 67 2.3 W 39 54 21 29 1002.1 1002.2 0.2
23/10:00am 7.3 -3.0 2.8 73 1.9 WSW 46 67 25 36 1001.0 1001.1 0.2
23/09:30am 6.6 -2.8 4.3 85 1.0 W 43 76 23 41 1000.4 1000.5 0.2
23/09:00am 6.4 -3.1 4.1 85 1.0 WSW 43 63 23 34 999.6 999.7 13.0
23/08:41am 6.8 -1.4 4.8 87 0.9 WSW 37 65 20 35 999.7 999.8 12.6
23/08:38am 7.6 0.7 4.7 82 1.3 WSW 30 61 16 33 999.5 999.6 12.4
23/08:30am 8.4 1.0 4.2 75 1.8 W 32 46 17 25 998.7 998.8 12.2
23/08:00am 8.1 1.5 4.1 76 1.8 W 28 46 15 25 998.3 998.4 12.2
23/07:30am 7.3 2.1 3.5 77 1.6 W 20 32 11 17 997.3 997.4 12.2
23/07:00am 7.1 2.1 3.5 78 1.5 WNW 19 28 10 15 996.4 996.5 12.2
23/06:30am 7.7 1.0 3.4 74 1.8 W 28 43 15 23 995.8 995.9 12.2
23/06:00am 7.9 0.3 4.1 77 1.7 W 33 44 18 24 995.4 995.5 12.2
23/05:30am 8.6 -0.8 4.4 75 1.8 WSW 43 63 23 34 994.6 994.6 12.2
23/05:17am 9.8 1.1 4.2 68 2.5 W 39 65 21 35 993.8 993.8 12.2
23/05:11am 9.6 3.0 4.2 69 2.4 W 28 46 15 25 993.5 993.5 12.2
23/05:00am 9.5 4.4 3.9 68 2.5 W 20 30 11 16 992.7 992.7 12.2
23/04:30am 7.6 3.3 5.4 86 1.0 NW 17 24 9 13 991.0 991.0 12.2
23/04:00am 7.3 2.7 5.4 88 0.9 NW 19 28 10 15 991.0 991.0 12.2
23/03:30am 7.9 4.0 5.5 85 1.1 WNW 15 20 8 11 991.6 991.6 12.2
23/03:00am 7.7 2.1 5.3 85 1.1 WSW 24 32 13 17 991.6 991.6 12.2
23/02:30am 8.2 2.7 6.0 86 1.0 WSW 24 33 13 18 991.7 991.7 12.2
23/02:00am 8.6 4.9 6.1 84 1.2 WNW 15 17 8 9 991.5 991.5 12.2
23/01:30am 8.9 5.6 6.2 83 1.2 NW 13 19 7 10 991.1 991.1 12.2
23/01:00am 8.5 6.8 7.7 95 0.4 N 6 9 3 5 991.4 991.4 12.2
23/12:30am 8.6 6.9 8.2 97 0.2 NE 7 7 4 4 991.8 991.8 12.2
23/12:00am 8.8 6.7 8.4 97 0.2 NE 9 11 5 6 992.2 992.2 12.2
 
Date/Time
EST
Temp
°C
App
Temp
°C
Dew
Point
°C
Rel
Hum
%
Delta-T
°C
Wind Press
QNH
hPa
Press
MSL
hPa
Rain since
9am
mm
Dir  Spd
km/h
Gust
km/h
Spd
kts
Gust
kts
22/11:30pm 8.8 7.1 8.2 96 0.3 NE 7 9 4 5 992.7 992.7 12.2
22/11:00pm 8.9 7.2 8.3 96 0.3 NE 7 7 4 4 993.4 993.4 11.6
22/10:30pm 9.1 8.0 8.3 95 0.4 SSE 4 7 2 4 993.7 993.7 11.4
22/10:00pm 9.2 7.1 8.3 94 0.4 WNW 9 13 5 7 994.7 994.7 10.8
22/09:30pm 9.3 6.8 8.4 94 0.4 NW 11 17 6 9 994.7 994.7 9.0
22/09:00pm 9.2 6.3 8.1 93 0.5 NNW 13 15 7 8 994.8 994.8 8.0
22/08:30pm 9.5 6.5 7.9 90 0.8 NW 13 17 7 9 995.0 995.0 7.4
22/08:00pm 9.8 5.7 7.9 88 0.9 WNW 19 35 10 19 995.5 995.6 7.0
22/07:30pm 10.2 5.8 7.4 83 1.3 W 20 30 11 16 995.5 995.6 6.0
22/07:00pm 11.1 3.7 6.8 75 2.1 WSW 35 50 19 27 995.6 995.7 5.6
22/06:30pm 11.2 3.7 6.5 73 2.2 WSW 35 50 19 27 995.2 995.3 5.6
22/06:00pm 11.0 3.2 6.6 74 2.1 WSW 37 56 20 30 994.9 994.9 5.6
22/05:30pm 11.5 2.5 6.6 72 2.3 WSW 43 67 23 36 994.9 994.9 5.6
22/05:03pm 12.0 4.1 7.7 75 2.1 WSW 39 57 21 31 994.7 994.7 5.6
22/05:00pm 12.0 3.7 7.9 76 2.0 SW 41 57 22 31 994.7 994.7 5.6
22/04:53pm 12.7 5.2 8.0 73 2.3 WSW 37 56 20 30 994.7 994.7 5.6
22/04:49pm 13.9 6.7 7.7 66 3.1 WSW 35 48 19 26 994.4 994.4 5.6
22/04:30pm 15.5 8.8 5.7 52 4.7 WNW 30 44 16 24 993.3 993.3 5.6
22/04:00pm 16.0 9.4 5.9 51 4.9 W 30 46 16 25 993.5 993.5 5.6
22/03:30pm 16.1 10.0 6.8 54 4.6 W 28 39 15 21 993.2 993.2 5.6
22/03:00pm 15.4 9.1 7.4 59 4.0 W 30 43 16 23 992.7 992.7 5.6
22/02:50pm 15.2 9.3 7.7 61 3.7 W 28 43 15 23 992.7 992.7 5.6
22/02:30pm 14.9 12.0 9.5 70 2.8 WNW 15 20 8 11 993.0 993.0 5.6
22/02:00pm 15.1 10.6 9.9 71 2.7 WNW 24 32 13 17 993.1 993.1 5.6
22/01:45pm 15.0 10.7 10.6 75 2.3 NNW 24 43 13 23 992.3 992.3 5.6
22/01:38pm 14.4 10.7 11.6 83 1.5 NW 22 32 12 17 992.5 992.5 5.6
22/01:30pm 14.2 11.1 11.7 85 1.3 NNW 19 32 10 17 992.8 992.8 5.6
22/01:00pm 13.2 12.4 12.9 98 0.2 N 9 13 5 7 994.4 994.4 5.6
22/12:41pm 13.3 13.1 13.0 98 0.2 NNW 6 9 3 5 994.6 994.6 5.6
22/12:32pm 13.6 12.9 13.1 97 0.3 N 9 13 5 7 995.1 995.1 5.0
22/12:30pm 13.6 12.9 13.1 97 0.3 N 9 13 5 7 995.1 995.1 5.0
22/12:00pm 13.6 13.4 13.1 97 0.3 ENE 6 11 3 6 994.8 994.8 4.8
22/11:30am 13.7 13.0 13.2 97 0.3 SE 9 11 5 6 995.0 995.0 4.8
22/11:00am 13.7 11.4 13.1 96 0.3 SSW 17 22 9 12 996.2 996.3 3.6
22/10:30am 14.8 13.9 13.8 94 0.6 WSW 11 19 6 10 996.5 996.6 2.4
22/10:00am 15.3 15.0 13.2 87 1.2 W 7 9 4 5 995.9 996.0 1.0
22/09:30am 16.0 15.1 12.6 80 1.9 NNW 9 13 5 7 996.0 996.1 0.2
22/09:00am 15.5 14.8 11.5 77 2.2 NW 6 9 3 5 996.5 996.6 0.8
22/08:30am 16.1 15.0 10.6 70 2.9 NNE 7 9 4 5 996.5 996.6 0.6
22/08:00am 16.9 14.7 10.7 67 3.3 NW 13 19 7 10 996.8 996.9 0.6
22/07:30am 17.5 14.4 10.4 63 3.8 NNW 17 22 9 12 997.0 997.1 0.6
22/07:00am 18.2 13.9 9.5 57 4.6 NW 22 32 12 17 997.5 997.6 0.6
22/06:30am 16.0 13.8 8.0 59 4.0 NNW 9 13 5 7 998.2 998.3 0.6
22/06:00am 15.7 13.3 7.0 56 4.3 N 9 15 5 8 998.4 998.5 0.6
22/05:30am 16.1 13.3 7.1 55 4.5 NNE 11 17 6 9 998.9 999.0 0.6
22/05:00am 16.3 13.2 7.3 55 4.5 N 13 19 7 10 1000.0 1000.1 0.6
22/04:30am 16.6 13.9 7.3 54 4.6 NNE 11 17 6 9 1000.7 1000.8 0.6
22/04:00am 16.5 13.4 7.2 54 4.7 N 13 20 7 11 1001.3 1001.4 0.6
22/03:30am 15.6 12.4 6.9 56 4.3 NNW 13 22 7 12 1002.3 1002.4 0.6
22/03:00am 15.4 12.2 6.9 57 4.2 NW 13 19 7 10 1002.9 1003.0 0.6
22/02:30am 14.5 11.3 6.8 60 3.8 NNW 13 24 7 13 1004.0 1004.1 0.6
22/02:00am 14.3 10.4 7.1 62 3.5 NNW 17 28 9 15 1004.6 1004.7 0.6
22/01:30am 11.4 8.6 7.1 75 2.1 N 11 17 6 9 1005.4 1005.5 0.6
22/01:00am 10.9 7.9 7.6 80 1.6 NNE 13 17 7 9 1005.7 1005.8 0.6
22/12:30am 10.3 7.7 7.9 85 1.2 NNE 11 15 6 8 1006.6 1006.7 0.6
22/12:00am 10.3 7.3 7.7 84 1.3 NNE 13 17 7 9 1007.4 1007.5 0.6
 
Date/Time
EST
Temp
°C
App
Temp
°C
Dew
Point
°C
Rel
Hum
%
Delta-T
°C
Wind Press
QNH
hPa
Press
MSL
hPa
Rain since
9am
mm
Dir  Spd
km/h
Gust
km/h
Spd
kts
Gust
kts
21/11:30pm 10.1 7.1 7.9 86 1.1 NNE 13 19 7 10 1008.1 1008.2 0.6
21/11:00pm 8.8 6.4 8.7 99 0.0 N 11 13 6 7 1008.8 1008.8 0.6
21/10:43pm 8.1 5.9 8.0 99 0.0 N 9 11 5 6 1009.1 1009.1 0.6
21/10:30pm 7.8 5.5 7.5 98 0.1 N 9 13 5 7 1009.4 1009.4 0.6
21/10:00pm 7.6 5.3 7.3 98 0.1 N 9 13 5 7 1009.9 1009.9 0.6
21/09:43pm 8.1 5.5 7.7 97 0.2 N 11 15 6 8 1010.1 1010.1 0.6
21/09:30pm 8.6 6.1 8.3 98 0.1 NNE 11 13 6 7 1010.0 1010.0 0.6
21/09:00pm 7.3 5.2 6.7 96 0.3 ESE 7 7 4 4 1010.2 1010.2 0.6
21/08:57pm 7.1 5.1 6.4 95 0.3 ESE 6 7 3 4 1010.2 1010.2 0.6
21/08:52pm 7.4 5.5 6.8 96 0.3 SE 6 7 3 4 1010.3 1010.3 0.6
21/08:38pm 7.2 5.0 6.3 94 0.4 S 7 9 4 5 1010.8 1010.8 0.6
21/08:30pm 7.9 5.9 7.0 94 0.4 SE 7 9 4 5 1010.8 1010.8 0.6
21/08:00pm 9.2 7.1 8.4 95 0.4 NE 9 13 5 7 1010.6 1010.6 0.6
21/07:30pm 8.9 6.8 8.3 96 0.3 ENE 9 13 5 7 1011.0 1011.0 0.6
21/07:00pm 8.7 6.2 8.3 97 0.2 NE 11 15 6 8 1011.5 1011.5 0.6
21/06:39pm 9.2 7.2 8.6 96 0.3 NE 9 13 5 7 1011.6 1011.6 0.6
21/06:30pm 9.4 7.8 8.8 96 0.3 ENE 7 9 4 5 1011.6 1011.6 0.6
21/06:28pm 9.6 8.1 9.0 96 0.3 NE 7 9 4 5 1011.6 1011.6 0.6
21/06:00pm 9.8 9.2 8.9 94 0.4 E 2 7 1 4 1011.8 1011.8 0.6
21/05:30pm 9.4 7.8 8.0 91 0.7 S 6 7 3 4 1012.1 1012.2 0.6
21/05:00pm 12.2 11.1 10.1 87 1.1 SW 6 7 3 4 1012.0 1012.1 0.6
21/04:30pm 13.6 13.7 10.0 79 1.9 CALM 0 4 0 2 1012.0 1012.1 0.6
21/04:00pm 13.4 11.9 10.4 82 1.6 SSW 9 13 5 7 1012.3 1012.4 0.6
21/03:30pm 13.9 11.4 11.2 84 1.4 SSW 15 19 8 10 1012.3 1012.4 0.6
21/03:00pm 14.1 11.7 10.1 77 2.1 S 13 19 7 10 1012.4 1012.5 0.6
21/02:30pm 13.2 11.5 10.0 81 1.7 SSE 9 11 5 6 1012.3 1012.4 0.6
21/02:00pm 12.9 11.6 10.1 83 1.4 SSE 7 11 4 6 1012.3 1012.4 0.6
21/01:30pm 12.4 11.6 9.8 84 1.3 S 4 11 2 6 1012.9 1013.0 0.6
21/01:00pm 11.5 10.2 9.8 89 0.9 NE 7 11 4 6 1013.1 1013.2 0.6
21/12:30pm 10.9 9.4 9.2 89 0.8 NNE 7 9 4 5 1014.1 1014.2 0.6
21/12:00pm 10.6 9.1 9.0 90 0.8 ENE 7 9 4 5 1014.7 1014.8 0.4
21/11:30am 10.0 8.4 8.8 92 0.6 SE 7 7 4 4 1015.5 1015.6 0.4
21/11:00am 9.6 7.9 8.4 92 0.6 WSW 7 9 4 5 1016.4 1016.5 0.2

Other Formats:

Comma delimited format used in spreadsheet applications
http://www.bom.gov.au/fwo/IDV60801/IDV60801.94912.axf

JavaScript Object Notation format (JSON) in row-major order
http://www.bom.gov.au/fwo/IDV60801/IDV60801.94912.json